createdAt,value
2023-02-27T00:00:40.903Z,19.59
2023-02-27T00:03:09.579Z,19.58
2023-02-27T00:05:36.999Z,19.58
2023-02-27T00:08:05.797Z,19.58
2023-02-27T00:10:36.383Z,19.58
2023-02-27T00:13:05.834Z,19.58
2023-02-27T00:15:35.487Z,19.58
2023-02-27T00:18:08.732Z,19.58
2023-02-27T00:20:40.110Z,19.58
2023-02-27T00:23:11.973Z,19.57
2023-02-27T00:25:42.028Z,19.57
2023-02-27T00:28:13.718Z,19.58
2023-02-27T00:30:43.716Z,19.58
2023-02-27T00:33:15.076Z,19.59
2023-02-27T00:35:47.336Z,19.59
2023-02-27T00:38:17.002Z,19.59
2023-02-27T00:40:47.550Z,19.59
2023-02-27T00:43:20.790Z,19.59
2023-02-27T00:45:53.623Z,19.60
2023-02-27T00:48:26.467Z,19.61
2023-02-27T00:50:57.547Z,19.61
2023-02-27T00:53:29.432Z,19.61
2023-02-27T00:55:59.988Z,19.62
2023-02-27T00:58:31.190Z,19.62
2023-02-27T01:01:04.355Z,19.62
2023-02-27T01:03:34.237Z,19.61
2023-02-27T01:06:03.936Z,19.61
2023-02-27T01:08:33.632Z,19.60
2023-02-27T01:11:05.442Z,19.59
2023-02-27T01:13:34.606Z,19.58
2023-02-27T01:16:07.479Z,19.58
2023-02-27T01:18:37.985Z,19.59
2023-02-27T01:21:08.386Z,19.59
2023-02-27T01:23:38.715Z,19.58
2023-02-27T01:26:08.741Z,19.58
2023-02-27T01:28:39.143Z,19.57
2023-02-27T01:31:10.512Z,19.58
2023-02-27T01:33:41.073Z,19.57
2023-02-27T01:36:12.302Z,19.57
2023-02-27T01:38:43.145Z,19.57
2023-02-27T01:41:13.865Z,19.56
2023-02-27T01:44:03.077Z,19.57
2023-02-27T01:46:33.670Z,19.57
2023-02-27T01:49:26.312Z,19.56
2023-02-27T01:52:06.692Z,19.56
2023-02-27T01:54:39.336Z,19.56
2023-02-27T01:57:08.852Z,19.55
2023-02-27T01:59:40.929Z,19.55
2023-02-27T02:02:19.592Z,19.56
2023-02-27T02:04:50.738Z,19.56
2023-02-27T02:07:23.485Z,19.55
2023-02-27T02:09:56.458Z,19.56
2023-02-27T02:12:35.345Z,19.55
2023-02-27T02:15:07.515Z,19.54
2023-02-27T02:17:56.354Z,19.54
2023-02-27T02:20:31.699Z,19.53
2023-02-27T02:23:22.562Z,19.53
2023-02-27T02:26:33.147Z,19.53
2023-02-27T02:29:28.783Z,19.52
2023-02-27T02:32:17.771Z,19.52
2023-02-27T02:35:01.453Z,19.51
2023-02-27T02:37:46.171Z,19.50
2023-02-27T02:40:35.037Z,19.51
2023-02-27T02:43:21.225Z,19.50
2023-02-27T02:46:18.880Z,19.50
2023-02-27T02:48:57.148Z,19.50
2023-02-27T02:51:41.023Z,19.51
2023-02-27T02:54:13.786Z,19.51
2023-02-27T02:56:54.109Z,19.52
2023-02-27T02:59:35.538Z,19.52
2023-02-27T03:02:15.559Z,19.52
2023-02-27T03:04:58.060Z,19.52
2023-02-27T03:07:52.267Z,19.52
2023-02-27T03:10:29.776Z,19.52
2023-02-27T03:13:09.944Z,19.52
2023-02-27T03:15:52.226Z,19.52
2023-02-27T03:18:28.908Z,19.52
2023-02-27T03:21:04.599Z,19.52
2023-02-27T03:23:45.923Z,19.52
2023-02-27T03:26:21.342Z,19.51
2023-02-27T03:29:03.893Z,19.51
2023-02-27T03:31:36.186Z,19.51
2023-02-27T03:34:25.061Z,19.50
2023-02-27T03:37:25.051Z,19.50
2023-02-27T03:40:08.242Z,19.49
2023-02-27T03:42:46.035Z,19.49
2023-02-27T03:46:06.807Z,19.48
2023-02-27T03:48:37.136Z,19.48
2023-02-27T03:51:10.142Z,19.48
2023-02-27T03:53:57.421Z,19.48
2023-02-27T03:56:37.911Z,19.47
2023-02-27T03:59:10.337Z,19.47
2023-02-27T04:01:42.489Z,19.48
2023-02-27T04:04:17.896Z,19.48
2023-02-27T04:07:44.132Z,19.49
2023-02-27T04:10:52.127Z,19.49
2023-02-27T04:13:35.501Z,19.49
2023-02-27T04:16:37.577Z,19.49
2023-02-27T04:19:27.039Z,19.49
2023-02-27T04:22:22.251Z,19.50
2023-02-27T04:25:08.219Z,19.50
2023-02-27T04:27:41.478Z,19.49
2023-02-27T04:30:40.406Z,19.49
2023-02-27T04:33:16.468Z,19.48
2023-02-27T04:35:54.438Z,19.49
2023-02-27T04:38:42.496Z,19.49
2023-02-27T04:41:34.168Z,19.50
2023-02-27T04:44:05.821Z,19.50
2023-02-27T04:46:39.867Z,19.51
2023-02-27T04:49:26.786Z,19.50
2023-02-27T04:52:11.750Z,19.49
2023-02-27T04:55:01.125Z,19.49
2023-02-27T04:57:49.049Z,19.49
2023-02-27T05:00:23.795Z,19.49
2023-02-27T05:03:20.955Z,19.48
2023-02-27T05:05:54.257Z,19.48
2023-02-27T05:08:37.492Z,19.48
2023-02-27T05:11:33.953Z,19.48
2023-02-27T05:14:15.670Z,19.48
2023-02-27T05:17:03.021Z,19.48
2023-02-27T05:19:34.479Z,19.49
2023-02-27T05:22:25.195Z,19.49
2023-02-27T05:25:01.144Z,19.49
2023-02-27T05:27:40.089Z,19.49
2023-02-27T05:30:23.921Z,19.48
2023-02-27T05:33:14.460Z,19.48
2023-02-27T05:35:51.370Z,19.47
2023-02-27T05:38:38.214Z,19.48
2023-02-27T05:41:17.489Z,19.47
2023-02-27T05:44:00.401Z,19.46
2023-02-27T05:46:35.900Z,19.46
2023-02-27T05:49:13.750Z,19.46
2023-02-27T05:51:46.513Z,19.45
2023-02-27T05:54:31.517Z,19.45
2023-02-27T05:57:02.823Z,19.45
2023-02-27T05:59:44.823Z,19.45
2023-02-27T06:02:14.596Z,19.44
2023-02-27T06:04:43.702Z,19.43
2023-02-27T06:07:15.649Z,19.43
2023-02-27T06:09:47.342Z,19.44
2023-02-27T06:12:15.923Z,19.43
2023-02-27T06:14:45.827Z,19.42
2023-02-27T06:17:15.641Z,19.41
2023-02-27T06:19:45.979Z,19.41
2023-02-27T06:22:16.166Z,19.41
2023-02-27T06:24:46.936Z,19.39
2023-02-27T06:27:16.994Z,19.39
2023-02-27T06:29:46.344Z,19.39
2023-02-27T06:32:16.183Z,19.38
2023-02-27T06:34:45.032Z,19.39
2023-02-27T06:37:14.452Z,19.39
2023-02-27T06:39:44.353Z,19.39
2023-02-27T06:42:15.689Z,19.39
2023-02-27T06:44:45.550Z,19.40
2023-02-27T06:47:16.577Z,19.40
2023-02-27T06:49:47.596Z,19.40
2023-02-27T06:52:19.560Z,19.40
2023-02-27T06:54:50.098Z,19.39
2023-02-27T06:57:20.549Z,19.40
2023-02-27T06:59:50.316Z,19.40
2023-02-27T07:02:21.753Z,19.40
2023-02-27T07:04:55.033Z,19.40
2023-02-27T07:07:36.325Z,19.40
2023-02-27T07:10:14.344Z,19.40
2023-02-27T07:12:45.560Z,19.41
2023-02-27T07:15:21.357Z,19.41
2023-02-27T07:17:53.153Z,19.41
2023-02-27T07:20:24.904Z,19.42
2023-02-27T07:22:55.494Z,19.43
2023-02-27T07:25:27.018Z,19.43
2023-02-27T07:28:01.793Z,19.46
2023-02-27T07:30:35.254Z,19.47
2023-02-27T07:33:07.768Z,19.49
2023-02-27T07:35:40.531Z,19.50
2023-02-27T07:38:12.384Z,19.50
2023-02-27T07:40:46.207Z,19.51
2023-02-27T07:43:20.023Z,19.52
2023-02-27T07:45:53.896Z,19.53
2023-02-27T07:48:27.323Z,19.54
2023-02-27T07:50:59.858Z,19.55
2023-02-27T07:53:30.496Z,19.56
2023-02-27T07:56:00.141Z,19.56
2023-02-27T07:58:27.746Z,19.57
2023-02-27T08:00:55.062Z,19.57
2023-02-27T08:03:22.094Z,19.56
2023-02-27T08:05:49.068Z,19.54
2023-02-27T08:08:16.347Z,19.53
2023-02-27T08:10:43.390Z,19.51
2023-02-27T08:13:10.438Z,19.49
2023-02-27T08:15:37.401Z,19.48
2023-02-27T08:18:04.429Z,19.46
2023-02-27T08:20:32.448Z,19.45
2023-02-27T08:22:59.635Z,19.44
2023-02-27T08:25:26.511Z,19.43
2023-02-27T08:27:53.440Z,19.42
2023-02-27T08:30:20.486Z,19.42
2023-02-27T08:32:47.844Z,19.42
2023-02-27T08:35:15.050Z,19.42
2023-02-27T08:37:41.931Z,19.41
2023-02-27T08:40:11.301Z,19.41
2023-02-27T08:42:38.382Z,19.40
2023-02-27T08:45:06.137Z,19.40
2023-02-27T08:47:33.090Z,19.40
2023-02-27T08:50:00.042Z,19.40
2023-02-27T08:52:26.979Z,19.39
2023-02-27T08:54:53.924Z,19.39
2023-02-27T08:57:20.970Z,19.38
2023-02-27T08:59:48.204Z,19.38
2023-02-27T09:02:15.167Z,19.38
2023-02-27T09:04:42.272Z,19.38
2023-02-27T09:07:09.292Z,19.38
2023-02-27T09:09:36.213Z,19.38
2023-02-27T09:12:03.256Z,19.38
2023-02-27T09:14:30.197Z,19.37
2023-02-27T09:16:58.545Z,19.37
2023-02-27T09:19:25.837Z,19.38
2023-02-27T09:21:52.876Z,19.38
2023-02-27T09:24:20.890Z,19.38
2023-02-27T09:26:49.597Z,19.38
2023-02-27T09:29:16.896Z,19.38
2023-02-27T09:31:43.885Z,19.38
2023-02-27T09:34:11.085Z,19.39
2023-02-27T09:36:38.133Z,19.39
2023-02-27T09:39:05.491Z,19.39
2023-02-27T09:41:53.229Z,19.38
2023-02-27T09:44:45.560Z,19.39
2023-02-27T09:47:37.290Z,19.40
2023-02-27T09:50:09.350Z,19.40
2023-02-27T09:52:37.846Z,19.41
2023-02-27T09:55:13.244Z,19.41
2023-02-27T09:57:46.723Z,19.42
2023-02-27T10:00:48.541Z,19.42
2023-02-27T10:03:28.070Z,19.42
2023-02-27T10:06:34.142Z,19.42
2023-02-27T10:09:01.080Z,19.41
2023-02-27T10:12:05.264Z,19.42
2023-02-27T10:15:00.128Z,19.41
2023-02-27T10:17:34.811Z,19.42
2023-02-27T10:20:09.759Z,19.42
2023-02-27T10:22:43.332Z,19.42
2023-02-27T10:25:30.363Z,19.42
2023-02-27T10:28:09.033Z,19.42
2023-02-27T10:30:36.672Z,19.42
2023-02-27T10:33:19.994Z,19.42
2023-02-27T10:35:47.218Z,19.43
2023-02-27T10:38:26.880Z,19.42
2023-02-27T10:40:55.870Z,19.42
2023-02-27T10:43:23.147Z,19.42
2023-02-27T10:45:50.409Z,19.43
2023-02-27T10:48:18.651Z,19.43
2023-02-27T10:50:52.378Z,19.43
2023-02-27T10:53:25.635Z,19.43
2023-02-27T10:56:02.938Z,19.43
2023-02-27T10:58:35.711Z,19.44
2023-02-27T11:01:09.372Z,19.45
2023-02-27T11:03:42.710Z,19.44
2023-02-27T11:06:20.812Z,19.44
2023-02-27T11:09:11.823Z,19.44
2023-02-27T11:11:39.794Z,19.45
2023-02-27T11:14:25.293Z,19.45
2023-02-27T11:16:54.060Z,19.44
2023-02-27T11:19:36.472Z,19.45
2023-02-27T11:22:15.808Z,19.45
2023-02-27T11:24:43.388Z,19.45
2023-02-27T11:27:32.407Z,19.45
2023-02-27T11:30:00.788Z,19.46
2023-02-27T11:32:43.870Z,19.48
2023-02-27T11:35:28.594Z,19.50
2023-02-27T11:37:59.298Z,19.53
2023-02-27T11:40:36.967Z,19.55
2023-02-27T11:43:15.289Z,19.58
2023-02-27T11:46:09.320Z,19.60
2023-02-27T11:49:25.838Z,19.63
2023-02-27T11:52:24.106Z,19.65
2023-02-27T11:55:00.982Z,19.66
2023-02-27T11:57:32.938Z,19.67
2023-02-27T12:00:21.802Z,19.67
2023-02-27T12:03:16.083Z,19.66
2023-02-27T12:06:04.938Z,19.64
2023-02-27T12:08:56.631Z,19.63
2023-02-27T12:11:35.601Z,19.60
2023-02-27T12:14:25.338Z,19.59
2023-02-27T12:17:05.401Z,19.59
2023-02-27T12:19:48.520Z,19.58
2023-02-27T12:22:24.922Z,19.59
2023-02-27T12:25:00.103Z,19.60
2023-02-27T12:27:37.773Z,19.62
2023-02-27T12:30:27.847Z,19.63
2023-02-27T12:33:02.772Z,19.64
2023-02-27T12:35:33.448Z,19.64
2023-02-27T12:38:01.997Z,19.63
2023-02-27T12:40:39.447Z,19.63
2023-02-27T12:43:13.875Z,19.65
2023-02-27T12:45:43.883Z,19.66
2023-02-27T12:48:43.365Z,19.67
2023-02-27T12:51:13.593Z,19.69
2023-02-27T12:54:09.537Z,19.71
2023-02-27T12:57:00.717Z,19.72
2023-02-27T12:59:45.943Z,19.73
2023-02-27T13:02:28.048Z,19.74
2023-02-27T13:05:17.112Z,19.74
2023-02-27T13:07:53.106Z,19.73
2023-02-27T13:10:36.780Z,19.73
2023-02-27T13:13:31.898Z,19.73
2023-02-27T13:16:04.820Z,19.74
2023-02-27T13:18:57.054Z,19.75
2023-02-27T13:21:39.882Z,19.74
2023-02-27T13:24:38.548Z,19.74
2023-02-27T13:27:32.560Z,19.73
2023-02-27T13:30:05.453Z,19.72
2023-02-27T13:32:53.088Z,19.72
2023-02-27T13:35:44.116Z,19.73
2023-02-27T13:38:30.012Z,19.73
2023-02-27T13:40:57.075Z,19.74
2023-02-27T13:43:51.092Z,19.74
2023-02-27T13:46:23.543Z,19.75
2023-02-27T13:49:29.284Z,19.75
2023-02-27T13:52:04.276Z,19.75
2023-02-27T13:54:40.794Z,19.76
2023-02-27T13:57:27.597Z,19.75
2023-02-27T14:00:18.082Z,19.75
2023-02-27T14:02:59.968Z,19.75
2023-02-27T14:05:39.043Z,19.76
2023-02-27T14:08:35.670Z,19.76
2023-02-27T14:11:16.970Z,19.75
2023-02-27T14:13:50.054Z,19.74
2023-02-27T14:16:42.081Z,19.74
2023-02-27T14:19:18.536Z,19.73
2023-02-27T14:21:51.533Z,19.71
2023-02-27T14:24:26.395Z,19.70
2023-02-27T14:26:54.897Z,19.67
2023-02-27T14:29:31.170Z,19.66
2023-02-27T14:32:02.079Z,19.63
2023-02-27T14:34:30.628Z,19.62
2023-02-27T14:37:00.530Z,19.60
2023-02-27T14:39:33.461Z,19.59
2023-02-27T14:42:03.175Z,19.58
2023-02-27T14:44:43.736Z,19.56
2023-02-27T14:47:19.400Z,19.55
2023-02-27T14:49:47.922Z,19.55
2023-02-27T14:52:22.275Z,19.54
2023-02-27T14:54:50.730Z,19.53
2023-02-27T14:57:27.046Z,19.53
2023-02-27T14:59:54.855Z,19.52
2023-02-27T15:02:26.409Z,19.52
2023-02-27T15:05:15.983Z,19.51
2023-02-27T15:07:46.763Z,19.50
2023-02-27T15:10:31.272Z,19.49
2023-02-27T15:13:00.878Z,19.48
2023-02-27T15:15:28.407Z,19.47
2023-02-27T15:17:56.005Z,19.47
2023-02-27T15:20:35.230Z,19.47
2023-02-27T15:23:30.137Z,19.45
2023-02-27T15:25:59.857Z,19.45
2023-02-27T15:28:37.539Z,19.45
2023-02-27T15:31:05.522Z,19.44
2023-02-27T15:33:33.606Z,19.44
2023-02-27T15:36:01.721Z,19.44
2023-02-27T15:38:35.058Z,19.44
2023-02-27T15:41:04.259Z,19.44
2023-02-27T15:43:33.343Z,19.44
2023-02-27T15:46:00.606Z,19.44
2023-02-27T15:48:29.684Z,19.43
2023-02-27T15:51:03.917Z,19.42
2023-02-27T15:53:34.284Z,19.42
2023-02-27T15:56:06.400Z,19.41
2023-02-27T15:58:49.283Z,19.41
2023-02-27T16:01:22.346Z,19.40
2023-02-27T16:04:20.580Z,19.40
2023-02-27T16:06:58.514Z,19.41
2023-02-27T16:09:37.197Z,19.41
2023-02-27T16:12:25.438Z,19.41
2023-02-27T16:14:53.930Z,19.41
2023-02-27T16:17:23.127Z,19.41
2023-02-27T16:19:50.064Z,19.40
2023-02-27T16:22:19.259Z,19.40
2023-02-27T16:24:47.098Z,19.40
2023-02-27T16:27:25.875Z,19.40
2023-02-27T16:30:02.643Z,19.40
2023-02-27T16:32:36.548Z,19.39
2023-02-27T16:35:07.090Z,19.39
2023-02-27T16:37:39.181Z,19.39
2023-02-27T16:40:25.220Z,19.40
2023-02-27T16:42:52.804Z,19.40
2023-02-27T16:45:22.524Z,19.41
2023-02-27T16:47:51.216Z,19.42
2023-02-27T16:50:23.478Z,19.42
2023-02-27T16:52:50.649Z,19.43
2023-02-27T16:55:18.027Z,19.45
2023-02-27T16:57:45.099Z,19.45
2023-02-27T17:00:14.608Z,19.45
2023-02-27T17:02:41.652Z,19.45
2023-02-27T17:05:09.719Z,19.45
2023-02-27T17:07:39.340Z,19.43
2023-02-27T17:10:07.335Z,19.43
2023-02-27T17:12:34.380Z,19.43
2023-02-27T17:15:01.403Z,19.43
2023-02-27T17:17:28.962Z,19.43
2023-02-27T17:19:55.907Z,19.42
2023-02-27T17:22:22.957Z,19.42
2023-02-27T17:24:49.912Z,19.43
2023-02-27T17:27:16.848Z,19.43
2023-02-27T17:29:43.787Z,19.43
2023-02-27T17:32:10.963Z,19.43
2023-02-27T17:34:38.010Z,19.42
2023-02-27T17:37:07.074Z,19.42
2023-02-27T17:39:34.346Z,19.43
2023-02-27T17:42:01.380Z,19.44
2023-02-27T17:44:28.318Z,19.44
2023-02-27T17:46:55.587Z,19.43
2023-02-27T17:49:22.723Z,19.43
2023-02-27T17:51:50.597Z,19.43
2023-02-27T17:54:17.633Z,19.43
2023-02-27T17:56:44.576Z,19.43
2023-02-27T17:59:11.519Z,19.43
2023-02-27T18:01:39.419Z,19.42
2023-02-27T18:04:08.690Z,19.42
2023-02-27T18:06:35.689Z,19.42
2023-02-27T18:09:02.630Z,19.42
2023-02-27T18:11:29.704Z,19.44
2023-02-27T18:13:56.610Z,19.47
2023-02-27T18:16:24.212Z,19.49
2023-02-27T18:18:51.218Z,19.50
2023-02-27T18:21:23.619Z,19.52
2023-02-27T18:23:51.815Z,19.52
2023-02-27T18:26:32.798Z,19.53
2023-02-27T18:29:02.479Z,19.54
2023-02-27T18:31:32.201Z,19.55
2023-02-27T18:34:00.455Z,19.57
2023-02-27T18:36:29.883Z,19.58
2023-02-27T18:38:57.352Z,19.60
2023-02-27T18:41:24.409Z,19.61
2023-02-27T18:43:51.571Z,19.60
2023-02-27T18:46:19.028Z,19.60
2023-02-27T18:48:46.715Z,19.59
2023-02-27T18:51:15.712Z,19.58
2023-02-27T18:53:46.090Z,19.58
2023-02-27T18:56:14.955Z,19.58
2023-02-27T18:58:42.279Z,19.57
2023-02-27T19:01:24.445Z,19.58
2023-02-27T19:03:51.961Z,19.58
2023-02-27T19:06:19.143Z,19.57
2023-02-27T19:08:46.809Z,19.56
2023-02-27T19:11:29.749Z,19.55
2023-02-27T19:13:58.205Z,19.53
2023-02-27T19:16:25.948Z,19.52
2023-02-27T19:18:56.428Z,19.51
2023-02-27T19:21:27.223Z,19.50
2023-02-27T19:23:54.531Z,19.50
2023-02-27T19:26:23.430Z,19.51
2023-02-27T19:28:54.851Z,19.53
2023-02-27T19:31:24.580Z,19.54
2023-02-27T19:33:52.109Z,19.56
2023-02-27T19:36:21.113Z,19.58
2023-02-27T19:38:48.900Z,19.59
2023-02-27T19:41:17.780Z,19.61
2023-02-27T19:43:45.906Z,19.62
2023-02-27T19:46:25.262Z,19.63
2023-02-27T19:48:53.563Z,19.64
2023-02-27T19:51:21.528Z,19.66
2023-02-27T19:53:49.162Z,19.66
2023-02-27T19:56:20.702Z,19.68
2023-02-27T19:58:48.361Z,19.69
2023-02-27T20:01:33.508Z,19.69
2023-02-27T20:04:01.783Z,19.70
2023-02-27T20:06:31.174Z,19.71
2023-02-27T20:08:59.258Z,19.71
2023-02-27T20:11:33.210Z,19.72
2023-02-27T20:14:00.764Z,19.72
2023-02-27T20:16:30.650Z,19.72
2023-02-27T20:18:58.088Z,19.72
2023-02-27T20:21:26.978Z,19.73
2023-02-27T20:23:55.229Z,19.72
2023-02-27T20:26:27.088Z,19.72
2023-02-27T20:28:56.411Z,19.72
2023-02-27T20:31:29.309Z,19.73
2023-02-27T20:33:57.745Z,19.73
2023-02-27T20:36:24.742Z,19.72
2023-02-27T20:38:51.896Z,19.72
2023-02-27T20:41:22.430Z,19.72
2023-02-27T20:43:49.804Z,19.72
2023-02-27T20:46:19.857Z,19.71
2023-02-27T20:48:47.475Z,19.70
2023-02-27T20:51:20.158Z,19.69
2023-02-27T20:53:49.972Z,19.69
2023-02-27T20:56:20.643Z,19.68
2023-02-27T20:58:48.103Z,19.67
2023-02-27T21:01:18.712Z,19.63
2023-02-27T21:03:47.820Z,19.61
2023-02-27T21:06:17.901Z,19.58
2023-02-27T21:08:47.764Z,19.55
2023-02-27T21:11:20.919Z,19.53
2023-02-27T21:13:48.360Z,19.51
2023-02-27T21:16:17.196Z,19.49
2023-02-27T21:18:45.428Z,19.47
2023-02-27T21:21:17.000Z,19.45
2023-02-27T21:23:44.236Z,19.43
2023-02-27T21:26:21.935Z,19.41
2023-02-27T21:28:53.696Z,19.39
2023-02-27T21:31:22.991Z,19.37
2023-02-27T21:33:50.864Z,19.35
2023-02-27T21:36:17.902Z,19.34
2023-02-27T21:38:46.130Z,19.32
2023-02-27T21:41:13.836Z,19.31
2023-02-27T21:43:41.444Z,19.30
2023-02-27T21:46:11.363Z,19.29
2023-02-27T21:48:39.090Z,19.28
2023-02-27T21:51:07.458Z,19.28
2023-02-27T21:53:36.920Z,19.26
2023-02-27T21:56:09.274Z,19.26
2023-02-27T21:58:37.371Z,19.26
2023-02-27T22:01:15.621Z,19.25
2023-02-27T22:03:45.126Z,19.25
2023-02-27T22:06:14.313Z,19.25
2023-02-27T22:08:42.649Z,19.25
2023-02-27T22:11:10.352Z,19.25
2023-02-27T22:13:38.744Z,19.25
2023-02-27T22:16:14.916Z,19.24
2023-02-27T22:18:42.454Z,19.24
2023-02-27T22:21:19.968Z,19.23
2023-02-27T22:23:58.972Z,19.23
2023-02-27T22:26:28.479Z,19.24
2023-02-27T22:28:57.637Z,19.24
2023-02-27T22:31:27.451Z,19.24
2023-02-27T22:33:59.244Z,19.23
2023-02-27T22:36:32.211Z,19.23
2023-02-27T22:39:00.115Z,19.22
2023-02-27T22:41:30.823Z,19.21
2023-02-27T22:43:59.515Z,19.21
2023-02-27T22:46:28.891Z,19.21
2023-02-27T22:49:01.189Z,19.21
2023-02-27T22:51:29.145Z,19.22
2023-02-27T22:53:58.874Z,19.27
2023-02-27T22:56:26.735Z,19.29
2023-02-27T22:58:54.301Z,19.29
2023-02-27T23:01:24.416Z,19.30
2023-02-27T23:03:53.680Z,19.31
2023-02-27T23:06:25.264Z,19.31
2023-02-27T23:08:52.500Z,19.32
2023-02-27T23:11:20.792Z,19.32
2023-02-27T23:13:48.770Z,19.32
2023-02-27T23:16:16.331Z,19.31
2023-02-27T23:18:49.948Z,19.30
2023-02-27T23:21:19.771Z,19.30
2023-02-27T23:23:48.005Z,19.28
2023-02-27T23:26:15.477Z,19.27
2023-02-27T23:28:42.954Z,19.27
2023-02-27T23:31:10.020Z,19.25
2023-02-27T23:33:37.329Z,19.24
2023-02-27T23:36:04.964Z,19.23
2023-02-27T23:38:32.673Z,19.21
2023-02-27T23:41:08.926Z,19.20
2023-02-27T23:43:55.418Z,19.19
2023-02-27T23:46:22.562Z,19.18
2023-02-27T23:48:49.814Z,19.17
2023-02-27T23:51:16.866Z,19.15
2023-02-27T23:53:43.911Z,19.14
2023-02-27T23:56:18.438Z,19.14
2023-02-27T23:58:47.226Z,19.13
